Aérodrome :
LOGIN :

S'inscrire | Disclaimer

   EN    FR    IT 

 










Légende :    VFR   VFR Marginal   IFR   IFR Intensif   IFR Très Intensif
Visi : 
Plafond : 
>= 8 km
>= 3000ft
5 à 8 km
1000 à 3000 ft
1500m à 5 km
500 à 1000 ft
800 à 1500m
200 à 500 ft
< 800m
< 200 ft
Symboles :   Orages  Brouillard  Fortes neiges  Fortes précipitations  Vent > 20 kt
SIGMETs :   Divers  Orages  Givrage  Turbulence  Onde Orograph.  Cendres Volcan.






- Altitude de l'aérodrome : 436 ft
- Code IATA : BTS


LZIB - Bratislava

DERNIER METAR :
  • 150900Z 01003KT 300V080 CAVOK 26/16 Q1007 NOSIG

METARs EXPIRÉS :
  • 150830Z 05004KT 010V080 CAVOK 25/16 Q1007 NOSIG
  • 150800Z 05005KT 030V090 CAVOK 24/16 Q1007 NOSIG
  • 150730Z 04005KT 010V070 CAVOK 23/15 Q1007 NOSIG
  • 150700Z 06006KT CAVOK 23/15 Q1007 NOSIG
  • 150630Z 04007KT CAVOK 22/15 Q1007 NOSIG

TAF TAF LZIB
Valide du 15 à 06h jusqu'au 16 à 06h UTC


150515Z 1506/1606 03008KT CAVOK
BECMG 1508/1510 20008KT



MET'MAP, la Météo Aéronautique d'un coup d'oeil ! - Copyright ORBIFLY Décembre 2007 - Disclaimer

ORBIFLY MET'MAP TEAM :

Programmation & Développement : Alexandra Zaïnal
Sur une idée originale de : Baudouin d'Aumeries
Soutien technique & logistique : Manuel Goepfert
Assistance : Marc-Olivier Méhu




SOURCES & CREDITS :

   NOAA